sensor_id;sensor_type;location;lat;lon;timestamp;P1;P2;P0
21358;PMS7003;13506;50.852;20.632;2023-07-24T00:00:38;9.80;8.40;4.80
21358;PMS7003;13506;50.852;20.632;2023-07-24T00:03:28;8.20;7.20;4.40
21358;PMS7003;13506;50.852;20.632;2023-07-24T00:05:57;9.00;9.00;5.00
21358;PMS7003;13506;50.852;20.632;2023-07-24T00:08:26;7.80;7.80;4.20
21358;PMS7003;13506;50.852;20.632;2023-07-24T00:10:54;10.00;10.00;5.20
21358;PMS7003;13506;50.852;20.632;2023-07-24T00:13:22;9.00;8.00;4.40
21358;PMS7003;13506;50.852;20.632;2023-07-24T00:15:50;8.00;8.00;4.00
21358;PMS7003;13506;50.852;20.632;2023-07-24T00:18:18;9.00;8.40;4.80
21358;PMS7003;13506;50.852;20.632;2023-07-24T00:20:47;10.80;9.20;4.80
21358;PMS7003;13506;50.852;20.632;2023-07-24T00:23:16;9.40;8.00;5.00
21358;PMS7003;13506;50.852;20.632;2023-07-24T00:25:43;8.25;7.75;5.00
21358;PMS7003;13506;50.852;20.632;2023-07-24T00:28:12;13.40;9.60;5.80
21358;PMS7003;13506;50.852;20.632;2023-07-24T00:30:40;10.25;9.00;5.00
21358;PMS7003;13506;50.852;20.632;2023-07-24T00:33:09;9.40;7.80;5.00
21358;PMS7003;13506;50.852;20.632;2023-07-24T00:35:37;9.80;9.80;5.40
21358;PMS7003;13506;50.852;20.632;2023-07-24T00:38:08;10.00;10.00;6.20
21358;PMS7003;13506;50.852;20.632;2023-07-24T00:40:36;11.00;9.20;5.40
21358;PMS7003;13506;50.852;20.632;2023-07-24T00:43:05;7.60;7.60;4.60
21358;PMS7003;13506;50.852;20.632;2023-07-24T00:45:34;9.20;9.20;5.60
21358;PMS7003;13506;50.852;20.632;2023-07-24T00:48:02;9.60;8.40;5.00
21358;PMS7003;13506;50.852;20.632;2023-07-24T00:50:30;9.40;9.40;6.20
21358;PMS7003;13506;50.852;20.632;2023-07-24T00:52:59;10.60;9.60;5.20
21358;PMS7003;13506;50.852;20.632;2023-07-24T00:55:28;12.40;10.40;5.80
21358;PMS7003;13506;50.852;20.632;2023-07-24T00:57:57;10.20;8.80;5.20
21358;PMS7003;13506;50.852;20.632;2023-07-24T01:00:26;9.80;8.00;4.80
21358;PMS7003;13506;50.852;20.632;2023-07-24T01:02:55;10.20;9.20;5.40
21358;PMS7003;13506;50.852;20.632;2023-07-24T01:05:25;10.25;9.25;5.25
21358;PMS7003;13506;50.852;20.632;2023-07-24T01:07:54;10.50;10.50;5.25
21358;PMS7003;13506;50.852;20.632;2023-07-24T01:10:22;11.40;10.80;6.20
21358;PMS7003;13506;50.852;20.632;2023-07-24T01:12:53;10.00;9.20;6.00
21358;PMS7003;13506;50.852;20.632;2023-07-24T01:15:30;11.80;10.80;5.00
21358;PMS7003;13506;50.852;20.632;2023-07-24T01:18:03;10.00;10.00;6.00
21358;PMS7003;13506;50.852;20.632;2023-07-24T01:20:36;15.25;14.00;8.00
21358;PMS7003;13506;50.852;20.632;2023-07-24T01:23:23;10.00;9.00;5.80
21358;PMS7003;13506;50.852;20.632;2023-07-24T01:26:06;13.00;11.75;8.00
21358;PMS7003;13506;50.852;20.632;2023-07-24T01:28:35;11.00;8.20;5.00
21358;PMS7003;13506;50.852;20.632;2023-07-24T01:31:03;11.20;10.20;6.80
21358;PMS7003;13506;50.852;20.632;2023-07-24T01:33:30;10.80;10.80;6.00
21358;PMS7003;13506;50.852;20.632;2023-07-24T01:36:01;9.20;8.40;5.00
21358;PMS7003;13506;50.852;20.632;2023-07-24T01:38:31;9.80;9.20;5.20
21358;PMS7003;13506;50.852;20.632;2023-07-24T01:41:01;11.80;10.20;6.80
21358;PMS7003;13506;50.852;20.632;2023-07-24T01:43:31;9.40;7.00;4.00
21358;PMS7003;13506;50.852;20.632;2023-07-24T01:45:59;12.60;10.00;5.80
21358;PMS7003;13506;50.852;20.632;2023-07-24T01:48:27;10.20;10.20;5.00
21358;PMS7003;13506;50.852;20.632;2023-07-24T01:50:55;9.20;8.00;5.00
21358;PMS7003;13506;50.852;20.632;2023-07-24T01:53:23;11.80;9.60;5.20
21358;PMS7003;13506;50.852;20.632;2023-07-24T01:55:51;11.80;9.60;5.40
21358;PMS7003;13506;50.852;20.632;2023-07-24T01:58:19;10.40;8.00;5.00
21358;PMS7003;13506;50.852;20.632;2023-07-24T02:00:49;13.60;10.80;5.80
21358;PMS7003;13506;50.852;20.632;2023-07-24T02:03:17;12.00;11.00;5.60
21358;PMS7003;13506;50.852;20.632;2023-07-24T02:05:48;9.80;9.80;5.80
21358;PMS7003;13506;50.852;20.632;2023-07-24T02:08:17;12.20;10.60;5.80
21358;PMS7003;13506;50.852;20.632;2023-07-24T02:10:48;10.80;10.80;5.80
21358;PMS7003;13506;50.852;20.632;2023-07-24T02:13:16;9.60;9.60;6.00
21358;PMS7003;13506;50.852;20.632;2023-07-24T02:15:50;10.00;9.60;6.00
21358;PMS7003;13506;50.852;20.632;2023-07-24T02:18:19;9.80;9.80;5.00
21358;PMS7003;13506;50.852;20.632;2023-07-24T02:20:50;8.40;8.20;3.80
21358;PMS7003;13506;50.852;20.632;2023-07-24T02:23:18;10.00;9.00;5.00
21358;PMS7003;13506;50.852;20.632;2023-07-24T02:25:50;11.00;10.60;6.00
21358;PMS7003;13506;50.852;20.632;2023-07-24T02:28:18;9.20;8.60;5.80
21358;PMS7003;13506;50.852;20.632;2023-07-24T02:30:46;10.00;8.75;5.50
21358;PMS7003;13506;50.852;20.632;2023-07-24T02:33:18;11.00;10.00;6.00
21358;PMS7003;13506;50.852;20.632;2023-07-24T02:35:46;11.00;10.40;6.20
21358;PMS7003;13506;50.852;20.632;2023-07-24T02:38:18;12.60;11.20;6.60
21358;PMS7003;13506;50.852;20.632;2023-07-24T02:40:46;9.00;7.80;4.00
21358;PMS7003;13506;50.852;20.632;2023-07-24T02:43:14;10.80;9.40;5.60
21358;PMS7003;13506;50.852;20.632;2023-07-24T02:45:42;11.60;11.00;6.00
21358;PMS7003;13506;50.852;20.632;2023-07-24T02:48:10;10.20;8.80;5.00
21358;PMS7003;13506;50.852;20.632;2023-07-24T02:50:40;9.60;8.60;4.40
21358;PMS7003;13506;50.852;20.632;2023-07-24T02:53:08;10.60;10.60;6.40
21358;PMS7003;13506;50.852;20.632;2023-07-24T02:55:36;11.60;10.40;5.80
21358;PMS7003;13506;50.852;20.632;2023-07-24T02:58:08;8.40;8.40;5.00
21358;PMS7003;13506;50.852;20.632;2023-07-24T03:00:37;10.20;9.80;4.80
21358;PMS7003;13506;50.852;20.632;2023-07-24T03:03:05;9.40;8.80;4.80
21358;PMS7003;13506;50.852;20.632;2023-07-24T03:05:34;10.00;8.80;4.80
21358;PMS7003;13506;50.852;20.632;2023-07-24T03:08:05;12.80;11.80;7.20
21358;PMS7003;13506;50.852;20.632;2023-07-24T03:10:33;11.50;9.50;6.50
21358;PMS7003;13506;50.852;20.632;2023-07-24T03:13:01;11.50;10.25;6.50
21358;PMS7003;13506;50.852;20.632;2023-07-24T03:15:29;11.40;9.60;6.00
21358;PMS7003;13506;50.852;20.632;2023-07-24T03:17:57;11.50;10.75;7.50
21358;PMS7003;13506;50.852;20.632;2023-07-24T03:20:25;14.80;12.80;7.80
21358;PMS7003;13506;50.852;20.632;2023-07-24T03:22:53;10.75;10.75;7.00
21358;PMS7003;13506;50.852;20.632;2023-07-24T03:25:23;12.60;11.80;6.80
21358;PMS7003;13506;50.852;20.632;2023-07-24T03:27:51;11.80;10.60;6.80
21358;PMS7003;13506;50.852;20.632;2023-07-24T03:30:20;12.60;12.00;6.80
21358;PMS7003;13506;50.852;20.632;2023-07-24T03:32:47;13.20;10.60;6.40
21358;PMS7003;13506;50.852;20.632;2023-07-24T03:35:16;11.50;10.75;7.00
21358;PMS7003;13506;50.852;20.632;2023-07-24T03:37:44;13.80;10.20;6.20
21358;PMS7003;13506;50.852;20.632;2023-07-24T03:40:12;9.00;9.00;5.40
21358;PMS7003;13506;50.852;20.632;2023-07-24T03:42:42;12.20;10.00;6.00
21358;PMS7003;13506;50.852;20.632;2023-07-24T03:45:10;11.00;10.00;6.50
21358;PMS7003;13506;50.852;20.632;2023-07-24T03:47:38;12.40;10.80;6.40
21358;PMS7003;13506;50.852;20.632;2023-07-24T03:50:07;12.40;12.40;6.80
21358;PMS7003;13506;50.852;20.632;2023-07-24T03:52:35;13.60;11.40;5.80
21358;PMS7003;13506;50.852;20.632;2023-07-24T03:55:04;12.00;10.00;6.00
21358;PMS7003;13506;50.852;20.632;2023-07-24T03:57:33;11.40;10.00;6.80
21358;PMS7003;13506;50.852;20.632;2023-07-24T04:00:04;12.00;10.00;6.40
21358;PMS7003;13506;50.852;20.632;2023-07-24T04:02:38;12.40;10.20;6.20
21358;PMS7003;13506;50.852;20.632;2023-07-24T04:05:06;11.40;11.40;6.80
21358;PMS7003;13506;50.852;20.632;2023-07-24T04:07:34;11.80;10.60;6.40
21358;PMS7003;13506;50.852;20.632;2023-07-24T04:10:03;12.40;11.80;6.60
21358;PMS7003;13506;50.852;20.632;2023-07-24T04:12:32;11.00;10.60;6.80
21358;PMS7003;13506;50.852;20.632;2023-07-24T04:15:00;11.80;10.00;5.80
21358;PMS7003;13506;50.852;20.632;2023-07-24T04:17:29;10.80;10.20;5.60
21358;PMS7003;13506;50.852;20.632;2023-07-24T04:19:58;13.20;11.80;7.00
21358;PMS7003;13506;50.852;20.632;2023-07-24T04:22:26;12.80;11.80;7.40
21358;PMS7003;13506;50.852;20.632;2023-07-24T04:24:54;12.20;11.40;6.60
21358;PMS7003;13506;50.852;20.632;2023-07-24T04:27:22;11.80;10.60;6.00
21358;PMS7003;13506;50.852;20.632;2023-07-24T04:29:50;13.60;12.80;8.00
21358;PMS7003;13506;50.852;20.632;2023-07-24T04:32:18;12.80;11.80;7.40
21358;PMS7003;13506;50.852;20.632;2023-07-24T04:34:47;10.20;10.00;6.40
21358;PMS7003;13506;50.852;20.632;2023-07-24T04:37:15;10.00;10.00;6.40
21358;PMS7003;13506;50.852;20.632;2023-07-24T04:39:43;11.80;11.00;7.00
21358;PMS7003;13506;50.852;20.632;2023-07-24T04:42:11;13.20;11.20;5.60
21358;PMS7003;13506;50.852;20.632;2023-07-24T04:44:39;11.40;10.00;6.00
21358;PMS7003;13506;50.852;20.632;2023-07-24T04:47:07;15.00;12.00;7.60
21358;PMS7003;13506;50.852;20.632;2023-07-24T04:49:35;11.20;11.20;6.40
21358;PMS7003;13506;50.852;20.632;2023-07-24T04:52:05;11.40;10.40;6.40
21358;PMS7003;13506;50.852;20.632;2023-07-24T04:54:33;14.00;11.60;7.00
21358;PMS7003;13506;50.852;20.632;2023-07-24T04:57:01;10.40;10.40;6.40
21358;PMS7003;13506;50.852;20.632;2023-07-24T04:59:30;11.20;11.20;6.60
21358;PMS7003;13506;50.852;20.632;2023-07-24T05:01:57;14.00;12.60;8.00
21358;PMS7003;13506;50.852;20.632;2023-07-24T05:04:26;14.00;12.80;7.60
21358;PMS7003;13506;50.852;20.632;2023-07-24T05:06:53;12.20;12.20;7.40
21358;PMS7003;13506;50.852;20.632;2023-07-24T05:09:23;12.25;11.00;7.50
21358;PMS7003;13506;50.852;20.632;2023-07-24T05:11:51;11.60;11.60;6.80
21358;PMS7003;13506;50.852;20.632;2023-07-24T05:14:19;12.50;12.50;8.00
21358;PMS7003;13506;50.852;20.632;2023-07-24T05:16:47;11.60;10.00;7.00
21358;PMS7003;13506;50.852;20.632;2023-07-24T05:19:15;12.40;10.60;6.20
21358;PMS7003;13506;50.852;20.632;2023-07-24T05:21:43;15.20;12.60;7.00
21358;PMS7003;13506;50.852;20.632;2023-07-24T05:24:11;13.75;12.50;7.00
21358;PMS7003;13506;50.852;20.632;2023-07-24T05:26:40;13.25;12.75;8.00
21358;PMS7003;13506;50.852;20.632;2023-07-24T05:29:08;14.75;12.25;7.00
21358;PMS7003;13506;50.852;20.632;2023-07-24T05:31:36;14.60;12.80;6.60
21358;PMS7003;13506;50.852;20.632;2023-07-24T05:34:04;14.75;13.00;8.00
21358;PMS7003;13506;50.852;20.632;2023-07-24T05:36:32;14.00;12.00;7.00
21358;PMS7003;13506;50.852;20.632;2023-07-24T05:39:01;12.00;11.50;6.75
21358;PMS7003;13506;50.852;20.632;2023-07-24T05:41:28;12.20;10.80;6.80
21358;PMS7003;13506;50.852;20.632;2023-07-24T05:43:58;12.50;11.00;6.00
21358;PMS7003;13506;50.852;20.632;2023-07-24T05:46:26;13.75;13.00;7.75
21358;PMS7003;13506;50.852;20.632;2023-07-24T05:48:55;12.60;12.60;6.60
21358;PMS7003;13506;50.852;20.632;2023-07-24T05:51:23;11.75;10.00;6.00
21358;PMS7003;13506;50.852;20.632;2023-07-24T05:53:51;10.50;10.50;6.00
21358;PMS7003;13506;50.852;20.632;2023-07-24T05:56:19;13.20;10.60;6.00
21358;PMS7003;13506;50.852;20.632;2023-07-24T05:58:47;15.75;12.00;7.25
21358;PMS7003;13506;50.852;20.632;2023-07-24T06:01:17;11.40;11.20;6.20
21358;PMS7003;13506;50.852;20.632;2023-07-24T06:03:45;11.00;10.80;7.00
21358;PMS7003;13506;50.852;20.632;2023-07-24T06:06:13;16.50;12.75;7.75
21358;PMS7003;13506;50.852;20.632;2023-07-24T06:08:41;12.00;11.00;7.00
21358;PMS7003;13506;50.852;20.632;2023-07-24T06:11:09;13.50;12.00;7.50
21358;PMS7003;13506;50.852;20.632;2023-07-24T06:13:37;12.50;12.50;7.00
21358;PMS7003;13506;50.852;20.632;2023-07-24T06:16:06;12.50;11.00;6.00
21358;PMS7003;13506;50.852;20.632;2023-07-24T06:18:35;13.00;11.00;6.25
21358;PMS7003;13506;50.852;20.632;2023-07-24T06:21:03;14.75;12.50;6.00
21358;PMS7003;13506;50.852;20.632;2023-07-24T06:23:31;13.25;12.50;8.25
21358;PMS7003;13506;50.852;20.632;2023-07-24T06:25:59;17.50;13.50;7.00
21358;PMS7003;13506;50.852;20.632;2023-07-24T06:28:27;13.25;12.00;7.50
21358;PMS7003;13506;50.852;20.632;2023-07-24T06:30:55;14.00;12.25;6.75
21358;PMS7003;13506;50.852;20.632;2023-07-24T06:33:24;11.75;11.75;7.00
21358;PMS7003;13506;50.852;20.632;2023-07-24T06:35:53;11.75;11.00;7.00
21358;PMS7003;13506;50.852;20.632;2023-07-24T06:38:21;13.20;10.60;6.40
21358;PMS7003;13506;50.852;20.632;2023-07-24T06:40:49;12.50;11.50;7.25
21358;PMS7003;13506;50.852;20.632;2023-07-24T06:43:17;16.50;12.25;6.25
21358;PMS7003;13506;50.852;20.632;2023-07-24T06:45:45;12.80;10.20;6.60
21358;PMS7003;13506;50.852;20.632;2023-07-24T06:48:13;12.00;12.00;8.25
21358;PMS7003;13506;50.852;20.632;2023-07-24T06:50:41;15.00;13.00;5.75
21358;PMS7003;13506;50.852;20.632;2023-07-24T06:53:11;14.25;11.25;7.50
21358;PMS7003;13506;50.852;20.632;2023-07-24T06:55:39;10.75;10.75;6.00
21358;PMS7003;13506;50.852;20.632;2023-07-24T06:58:08;11.75;11.75;6.25
21358;PMS7003;13506;50.852;20.632;2023-07-24T07:00:35;12.00;10.25;6.50
21358;PMS7003;13506;50.852;20.632;2023-07-24T07:03:04;12.25;12.25;8.25
21358;PMS7003;13506;50.852;20.632;2023-07-24T07:05:32;13.00;11.75;6.00
21358;PMS7003;13506;50.852;20.632;2023-07-24T07:08:00;14.00;12.00;6.50
21358;PMS7003;13506;50.852;20.632;2023-07-24T07:10:29;13.50;12.50;7.00
21358;PMS7003;13506;50.852;20.632;2023-07-24T07:12:58;13.75;13.75;8.00
21358;PMS7003;13506;50.852;20.632;2023-07-24T07:15:26;10.00;9.75;5.00
21358;PMS7003;13506;50.852;20.632;2023-07-24T07:17:54;13.75;11.00;7.00
21358;PMS7003;13506;50.852;20.632;2023-07-24T07:20:22;10.25;9.25;6.00
21358;PMS7003;13506;50.852;20.632;2023-07-24T07:22:51;11.00;11.00;6.00
21358;PMS7003;13506;50.852;20.632;2023-07-24T07:25:18;14.25;11.50;7.00
21358;PMS7003;13506;50.852;20.632;2023-07-24T07:27:48;14.50;12.00;6.00
21358;PMS7003;13506;50.852;20.632;2023-07-24T07:30:16;16.00;13.00;7.25
21358;PMS7003;13506;50.852;20.632;2023-07-24T07:32:44;12.25;11.00;6.00
21358;PMS7003;13506;50.852;20.632;2023-07-24T07:35:14;11.50;10.00;6.00
21358;PMS7003;13506;50.852;20.632;2023-07-24T07:37:42;14.75;13.75;6.25
21358;PMS7003;13506;50.852;20.632;2023-07-24T07:40:10;11.00;9.75;5.25
21358;PMS7003;13506;50.852;20.632;2023-07-24T07:42:39;10.50;9.00;6.00
21358;PMS7003;13506;50.852;20.632;2023-07-24T07:45:08;12.75;10.50;7.00
21358;PMS7003;13506;50.852;20.632;2023-07-24T07:47:37;10.25;10.25;5.75
21358;PMS7003;13506;50.852;20.632;2023-07-24T07:50:05;9.50;9.50;5.75
21358;PMS7003;13506;50.852;20.632;2023-07-24T07:52:33;11.50;11.25;7.00
21358;PMS7003;13506;50.852;20.632;2023-07-24T07:55:01;10.75;10.75;6.00
21358;PMS7003;13506;50.852;20.632;2023-07-24T07:57:32;10.50;10.00;5.00
21358;PMS7003;13506;50.852;20.632;2023-07-24T08:00:00;8.50;8.00;4.00
21358;PMS7003;13506;50.852;20.632;2023-07-24T08:02:32;11.00;9.50;5.50
21358;PMS7003;13506;50.852;20.632;2023-07-24T08:05:00;9.75;8.75;4.50
21358;PMS7003;13506;50.852;20.632;2023-07-24T08:07:30;12.75;9.00;5.00
21358;PMS7003;13506;50.852;20.632;2023-07-24T08:09:58;10.75;9.00;5.25
21358;PMS7003;13506;50.852;20.632;2023-07-24T08:12:26;10.75;7.25;5.00
21358;PMS7003;13506;50.852;20.632;2023-07-24T08:14:55;10.00;9.00;6.00
21358;PMS7003;13506;50.852;20.632;2023-07-24T08:17:23;12.00;11.00;6.50
21358;PMS7003;13506;50.852;20.632;2023-07-24T08:19:52;8.75;8.00;4.00
21358;PMS7003;13506;50.852;20.632;2023-07-24T08:22:20;10.25;8.75;6.00
21358;PMS7003;13506;50.852;20.632;2023-07-24T08:24:49;12.25;10.75;6.00
21358;PMS7003;13506;50.852;20.632;2023-07-24T08:27:17;9.25;8.75;5.00
21358;PMS7003;13506;50.852;20.632;2023-07-24T08:29:45;11.25;9.50;6.00
21358;PMS7003;13506;50.852;20.632;2023-07-24T08:32:13;12.50;9.50;5.50
21358;PMS7003;13506;50.852;20.632;2023-07-24T08:34:41;10.75;10.50;5.00
21358;PMS7003;13506;50.852;20.632;2023-07-24T08:37:11;13.50;9.50;4.00
21358;PMS7003;13506;50.852;20.632;2023-07-24T08:39:39;9.00;9.00;4.00
21358;PMS7003;13506;50.852;20.632;2023-07-24T08:42:08;7.75;7.25;3.50
21358;PMS7003;13506;50.852;20.632;2023-07-24T08:44:37;11.00;9.25;4.75
21358;PMS7003;13506;50.852;20.632;2023-07-24T08:47:06;8.50;8.00;4.00
21358;PMS7003;13506;50.852;20.632;2023-07-24T08:49:37;9.25;7.25;5.00
21358;PMS7003;13506;50.852;20.632;2023-07-24T08:52:07;8.00;7.00;3.75
21358;PMS7003;13506;50.852;20.632;2023-07-24T08:54:38;9.00;7.25;3.25
21358;PMS7003;13506;50.852;20.632;2023-07-24T08:57:07;9.00;7.75;3.00
21358;PMS7003;13506;50.852;20.632;2023-07-24T08:59:34;10.00;9.00;5.00
21358;PMS7003;13506;50.852;20.632;2023-07-24T09:02:02;8.25;7.50;3.00
21358;PMS7003;13506;50.852;20.632;2023-07-24T09:04:31;8.00;8.00;4.00
21358;PMS7003;13506;50.852;20.632;2023-07-24T09:06:59;11.25;10.00;4.50
21358;PMS7003;13506;50.852;20.632;2023-07-24T09:09:29;8.00;6.50;3.50
21358;PMS7003;13506;50.852;20.632;2023-07-24T09:11:59;10.25;7.75;4.50
21358;PMS7003;13506;50.852;20.632;2023-07-24T09:14:27;10.00;7.25;5.00
21358;PMS7003;13506;50.852;20.632;2023-07-24T09:17:03;14.25;10.50;5.00
21358;PMS7003;13506;50.852;20.632;2023-07-24T09:19:32;8.50;8.00;3.50
21358;PMS7003;13506;50.852;20.632;2023-07-24T09:22:10;10.75;8.00;4.00
21358;PMS7003;13506;50.852;20.632;2023-07-24T09:24:48;9.00;7.50;4.00
21358;PMS7003;13506;50.852;20.632;2023-07-24T09:27:19;8.00;6.75;3.50
21358;PMS7003;13506;50.852;20.632;2023-07-24T09:29:48;8.50;7.75;4.00
21358;PMS7003;13506;50.852;20.632;2023-07-24T09:32:20;8.75;7.75;4.25
21358;PMS7003;13506;50.852;20.632;2023-07-24T09:34:48;10.00;7.75;4.00
21358;PMS7003;13506;50.852;20.632;2023-07-24T09:37:24;7.25;6.75;3.75
21358;PMS7003;13506;50.852;20.632;2023-07-24T09:39:53;9.75;8.25;4.25
21358;PMS7003;13506;50.852;20.632;2023-07-24T09:42:29;7.00;7.00;4.00
21358;PMS7003;13506;50.852;20.632;2023-07-24T09:44:58;7.75;7.00;3.75
21358;PMS7003;13506;50.852;20.632;2023-07-24T09:47:27;7.25;7.00;3.00
21358;PMS7003;13506;50.852;20.632;2023-07-24T09:49:55;10.00;6.75;3.00
21358;PMS7003;13506;50.852;20.632;2023-07-24T09:52:24;8.50;7.75;4.00
21358;PMS7003;13506;50.852;20.632;2023-07-24T09:54:57;8.50;7.25;4.00
21358;PMS7003;13506;50.852;20.632;2023-07-24T09:57:33;8.75;8.00;4.50
21358;PMS7003;13506;50.852;20.632;2023-07-24T10:00:02;7.50;7.00;3.50
21358;PMS7003;13506;50.852;20.632;2023-07-24T10:02:33;7.00;7.00;3.25
21358;PMS7003;13506;50.852;20.632;2023-07-24T10:05:03;10.25;8.75;4.25
21358;PMS7003;13506;50.852;20.632;2023-07-24T10:07:32;8.25;8.00;3.00
21358;PMS7003;13506;50.852;20.632;2023-07-24T10:10:00;10.50;8.00;4.25
21358;PMS7003;13506;50.852;20.632;2023-07-24T10:12:29;7.25;6.75;3.50
21358;PMS7003;13506;50.852;20.632;2023-07-24T10:14:59;7.75;5.75;2.75
21358;PMS7003;13506;50.852;20.632;2023-07-24T10:17:34;6.00;6.00;2.50
21358;PMS7003;13506;50.852;20.632;2023-07-24T10:20:03;7.25;6.00;2.75
21358;PMS7003;13506;50.852;20.632;2023-07-24T10:22:32;9.25;7.75;3.75
21358;PMS7003;13506;50.852;20.632;2023-07-24T10:25:01;9.25;7.50;3.00
21358;PMS7003;13506;50.852;20.632;2023-07-24T10:27:30;7.25;7.00;4.00
21358;PMS7003;13506;50.852;20.632;2023-07-24T10:30:00;6.25;6.25;3.00
21358;PMS7003;13506;50.852;20.632;2023-07-24T10:32:29;7.25;7.25;4.00
21358;PMS7003;13506;50.852;20.632;2023-07-24T10:34:58;7.00;7.00;3.00
21358;PMS7003;13506;50.852;20.632;2023-07-24T10:37:33;7.50;6.75;3.50
21358;PMS7003;13506;50.852;20.632;2023-07-24T10:40:02;9.50;8.00;3.25
21358;PMS7003;13506;50.852;20.632;2023-07-24T10:42:31;8.25;7.00;3.75
21358;PMS7003;13506;50.852;20.632;2023-07-24T10:45:07;8.00;7.75;4.00
21358;PMS7003;13506;50.852;20.632;2023-07-24T10:47:36;6.50;6.00;3.00
21358;PMS7003;13506;50.852;20.632;2023-07-24T10:50:05;9.75;7.75;2.75
21358;PMS7003;13506;50.852;20.632;2023-07-24T10:52:33;7.50;5.25;2.50
21358;PMS7003;13506;50.852;20.632;2023-07-24T10:55:02;8.00;7.00;3.00
21358;PMS7003;13506;50.852;20.632;2023-07-24T10:57:30;6.00;6.00;2.00
21358;PMS7003;13506;50.852;20.632;2023-07-24T10:59:59;7.00;5.50;2.25
21358;PMS7003;13506;50.852;20.632;2023-07-24T11:02:29;8.75;7.50;3.00
21358;PMS7003;13506;50.852;20.632;2023-07-24T11:04:58;6.75;6.75;3.00
21358;PMS7003;13506;50.852;20.632;2023-07-24T11:07:31;8.00;7.00;3.25
21358;PMS7003;13506;50.852;20.632;2023-07-24T11:09:59;7.25;6.75;3.75
21358;PMS7003;13506;50.852;20.632;2023-07-24T11:12:27;10.00;8.00;3.50
21358;PMS7003;13506;50.852;20.632;2023-07-24T11:14:57;7.50;7.00;4.00
21358;PMS7003;13506;50.852;20.632;2023-07-24T11:17:34;7.25;7.25;3.75
21358;PMS7003;13506;50.852;20.632;2023-07-24T11:20:06;7.50;7.25;4.00
21358;PMS7003;13506;50.852;20.632;2023-07-24T11:22:38;6.25;6.00;3.00
21358;PMS7003;13506;50.852;20.632;2023-07-24T11:25:07;10.25;9.75;4.25
21358;PMS7003;13506;50.852;20.632;2023-07-24T11:27:39;9.50;8.00;4.25
21358;PMS7003;13506;50.852;20.632;2023-07-24T11:30:09;12.25;10.00;4.50
21358;PMS7003;13506;50.852;20.632;2023-07-24T11:32:40;9.25;8.00;4.00
21358;PMS7003;13506;50.852;20.632;2023-07-24T11:35:08;14.25;10.75;5.00
21358;PMS7003;13506;50.852;20.632;2023-07-24T11:37:37;9.75;8.50;5.00
21358;PMS7003;13506;50.852;20.632;2023-07-24T11:40:05;8.00;7.75;5.00
21358;PMS7003;13506;50.852;20.632;2023-07-24T11:42:38;11.25;8.25;4.00
21358;PMS7003;13506;50.852;20.632;2023-07-24T11:45:09;8.25;7.25;4.00
21358;PMS7003;13506;50.852;20.632;2023-07-24T11:47:43;10.00;8.00;4.00
21358;PMS7003;13506;50.852;20.632;2023-07-24T11:50:12;10.75;8.25;4.50
21358;PMS7003;13506;50.852;20.632;2023-07-24T11:52:41;10.75;8.25;5.50
21358;PMS7003;13506;50.852;20.632;2023-07-24T11:55:11;9.75;8.25;4.25
21358;PMS7003;13506;50.852;20.632;2023-07-24T11:57:41;11.25;9.00;5.00
21358;PMS7003;13506;50.852;20.632;2023-07-24T12:00:17;14.75;11.00;6.00
21358;PMS7003;13506;50.852;20.632;2023-07-24T12:02:49;11.75;9.00;5.50
21358;PMS7003;13506;50.852;20.632;2023-07-24T12:05:17;8.25;8.25;4.00
21358;PMS7003;13506;50.852;20.632;2023-07-24T12:07:46;8.75;8.00;5.00
21358;PMS7003;13506;50.852;20.632;2023-07-24T12:10:24;8.75;7.75;4.00
21358;PMS7003;13506;50.852;20.632;2023-07-24T12:12:54;9.00;9.00;6.00
21358;PMS7003;13506;50.852;20.632;2023-07-24T12:15:25;14.75;10.00;5.00
21358;PMS7003;13506;50.852;20.632;2023-07-24T12:17:55;9.50;8.75;5.00
21358;PMS7003;13506;50.852;20.632;2023-07-24T12:20:23;10.75;8.00;5.00
21358;PMS7003;13506;50.852;20.632;2023-07-24T12:22:52;10.50;10.50;5.00
21358;PMS7003;13506;50.852;20.632;2023-07-24T12:25:20;11.25;10.00;5.75
21358;PMS7003;13506;50.852;20.632;2023-07-24T12:27:49;10.00;7.25;4.75
21358;PMS7003;13506;50.852;20.632;2023-07-24T12:30:17;7.75;7.25;4.00
21358;PMS7003;13506;50.852;20.632;2023-07-24T12:32:45;11.25;10.00;5.00
21358;PMS7003;13506;50.852;20.632;2023-07-24T12:35:14;10.50;8.75;5.25
21358;PMS7003;13506;50.852;20.632;2023-07-24T12:37:43;7.25;7.25;3.75
21358;PMS7003;13506;50.852;20.632;2023-07-24T12:40:12;11.00;8.25;4.50
21358;PMS7003;13506;50.852;20.632;2023-07-24T12:42:40;9.50;9.25;5.50
21358;PMS7003;13506;50.852;20.632;2023-07-24T12:45:08;10.25;8.00;4.00
21358;PMS7003;13506;50.852;20.632;2023-07-24T12:47:37;10.00;9.25;5.00
21358;PMS7003;13506;50.852;20.632;2023-07-24T12:50:05;13.00;10.00;5.00
21358;PMS7003;13506;50.852;20.632;2023-07-24T12:52:35;10.00;10.00;5.00
21358;PMS7003;13506;50.852;20.632;2023-07-24T12:55:03;11.25;9.00;5.00
21358;PMS7003;13506;50.852;20.632;2023-07-24T12:57:32;11.00;10.00;5.00
21358;PMS7003;13506;50.852;20.632;2023-07-24T13:00:00;10.25;9.00;5.00
21358;PMS7003;13506;50.852;20.632;2023-07-24T13:02:28;10.75;9.75;5.00
21358;PMS7003;13506;50.852;20.632;2023-07-24T13:04:57;11.25;9.00;5.00
21358;PMS7003;13506;50.852;20.632;2023-07-24T13:07:25;9.75;8.75;3.75
21358;PMS7003;13506;50.852;20.632;2023-07-24T13:09:56;9.75;7.00;4.00
21358;PMS7003;13506;50.852;20.632;2023-07-24T13:12:24;12.25;10.50;4.50
21358;PMS7003;13506;50.852;20.632;2023-07-24T13:14:51;8.75;8.75;5.00
21358;PMS7003;13506;50.852;20.632;2023-07-24T13:17:20;11.00;9.00;5.25
21358;PMS7003;13506;50.852;20.632;2023-07-24T13:19:48;9.00;8.00;4.25
21358;PMS7003;13506;50.852;20.632;2023-07-24T13:22:16;11.00;9.75;5.00
21358;PMS7003;13506;50.852;20.632;2023-07-24T13:24:44;10.25;9.00;6.00
21358;PMS7003;13506;50.852;20.632;2023-07-24T13:27:14;8.50;8.00;4.00
21358;PMS7003;13506;50.852;20.632;2023-07-24T13:29:42;10.25;9.50;6.00
21358;PMS7003;13506;50.852;20.632;2023-07-24T13:32:10;11.75;9.25;5.25
21358;PMS7003;13506;50.852;20.632;2023-07-24T13:34:38;9.00;9.00;4.50
21358;PMS7003;13506;50.852;20.632;2023-07-24T13:37:06;11.75;8.75;4.00
21358;PMS7003;13506;50.852;20.632;2023-07-24T13:39:34;14.25;10.50;6.00
21358;PMS7003;13506;50.852;20.632;2023-07-24T13:42:04;11.25;9.50;5.00
21358;PMS7003;13506;50.852;20.632;2023-07-24T13:44:34;9.75;8.75;6.00
21358;PMS7003;13506;50.852;20.632;2023-07-24T13:47:02;10.00;8.75;5.00
21358;PMS7003;13506;50.852;20.632;2023-07-24T13:49:30;12.25;10.50;5.00
21358;PMS7003;13506;50.852;20.632;2023-07-24T13:51:58;12.25;10.50;6.25
21358;PMS7003;13506;50.852;20.632;2023-07-24T13:54:27;12.50;10.25;5.00
21358;PMS7003;13506;50.852;20.632;2023-07-24T13:56:55;10.00;10.00;6.00
21358;PMS7003;13506;50.852;20.632;2023-07-24T13:59:23;12.50;10.00;6.25
21358;PMS7003;13506;50.852;20.632;2023-07-24T14:01:52;11.00;9.75;5.00
21358;PMS7003;13506;50.852;20.632;2023-07-24T14:04:20;14.00;12.25;6.00
21358;PMS7003;13506;50.852;20.632;2023-07-24T14:06:49;13.00;10.25;5.75